Terminal Aerodrome Forecast
Issued by NWS

Home | Current Version | Previous Version | Graphics & Text | Print | Product List | Glossary On
Versions: 1 2 3 4 5 6 7 8 9 10 11 12 13 14 15 16
275
FTUS41 KCLE 161138
TAFFDY
TAF
KFDY 161138Z 1612/1712 VRB03KT 4SM HZ SCT200
     FM161400 10004KT P6SM SCT045
     FM162300 09006KT P6SM SCT200
     FM170400 12005KT P6SM BKN200=

USA.gov is the U.S. government's official web portal to all federal, state and local government web resources and services.